Date,TemperatureHighF,TemperatureAvgF,TemperatureLowF,DewpointHighF,DewpointAvgF,DewpointLowF,HumidityHigh,HumidityAvg,HumidityLow,PressureMaxIn,PressureMinIn,WindSpeedMaxMPH,WindSpeedAvgMPH,GustSpeedMaxMPH,PrecipitationSumIn
2013-1-8,37.1,32.6,29.7,31.8,29.3,27.4,92,88,81,30.37,30.35,0,0,0,0.00
2013-1-9,58.7,34.8,26.9,47.8,29.8,25.1,94,84,39,30.37,30.30,5,0,12,0.00
2013-1-10,60.5,47.2,32.7,34.2,29.7,24.6,78,52,31,30.53,30.36,4,0,13,0.00
2013-1-11,43.7,41.3,36.9,41.0,36.5,29.9,95,83,66,30.43,30.06,0,0,6,0.05
2013-1-12,58.2,45.4,39.4,50.5,43.0,38.4,96,92,74,30.14,30.06,0,0,5,0.00
2013-1-13,48.7,46.7,45.8,47.6,45.2,44.4,96,95,94,30.09,30.02,0,0,1,0.01
2013-1-16,41.4,41.1,41.0,40.1,39.8,39.6,95,95,94,29.98,29.93,0,0,2,0.43
2013-1-17,44.2,39.4,32.9,42.9,38.1,31.4,96,95,93,30.09,29.92,1,0,8,0.50
2013-1-18,44.7,34.7,26.3,33.1,25.1,12.0,96,71,28,30.45,30.07,2,0,11,0.05
2013-1-19,27.8,25.0,23.1,25.3,22.9,21.4,94,92,90,30.40,30.33,0,0,1,0.00
2013-1-27,37.6,32.7,28.4,26.2,24.1,22.7,83,71,58,30.57,30.44,2,0,10,0.00
2013-1-28,48.3,37.9,30.2,41.9,34.5,25.1,94,88,77,30.45,30.06,2,0,6,0.16
2013-1-29,74.8,59.3,41.6,56.7,50.1,38.9,94,74,51,30.09,29.92,4,0,14,0.00
2013-1-30,68.4,61.2,54.7,62.6,57.3,49.9,95,87,80,29.92,29.21,7,2,23,1.41
2013-1-31,57.7,44.4,36.4,56.3,29.2,15.8,95,56,37,29.83,29.20,10,5,29,1.51
2013-2-9,47.9,38.6,25.4,16.8,14.2,10.0,64,38,22,30.34,30.20,7,1,23,0.00
2013-2-10,44.8,32.4,19.0,32.3,19.7,14.8,89,62,34,30.45,30.19,3,0,11,0.02
2013-2-11,60.0,47.5,35.3,50.6,39.0,18.1,96,78,22,30.20,29.73,6,1,21,0.06
2013-2-12,61.7,50.5,43.3,30.5,25.4,20.4,56,38,24,29.94,29.78,8,2,22,0.00
2013-2-13,44.0,39.4,35.5,36.7,30.8,22.6,93,72,46,29.88,29.61,1,0,5,0.06
2013-2-27,49.2,45.9,43.0,34.2,32.8,32.0,67,60,53,29.68,29.61,3,0,8,0.04
2013-2-28,45.0,27.8,38.0,33.6,-14.1,-99.9,74,40,45,29.67,29.60,5,-331,15,0.00
2013-3-1,41.9,22.1,35.8,28.2,-29.4,-99.9,65,32,52,29.88,-32.77,4,-436,12,0.00
2013-3-2,38.7,34.7,33.0,25.7,22.0,18.4,70,60,53,29.88,29.79,3,1,10,0.00
2013-3-3,44.1,34.1,26.7,20.8,17.6,12.9,70,51,37,29.92,29.77,7,2,16,0.00
2013-3-4,50.7,35.4,25.1,17.4,12.4,7.2,59,41,18,30.03,29.91,7,2,16,0.00
2013-3-5,32.0,31.4,30.6,22.1,19.4,15.5,67,61,53,30.03,30.01,0,0,2,0.00
2013-4-11,72.1,71.8,71.3,58.6,58.1,57.7,64,62,61,29.68,29.66,1,1,4,0.00
2013-4-12,80.2,70.2,61.5,65.0,55.8,38.0,94,64,31,29.67,29.49,6,2,18,0.89
2013-4-13,73.8,60.3,43.4,40.7,35.4,25.6,82,43,22,29.91,29.67,7,2,22,0.00
2013-4-14,76.3,62.4,47.2,48.2,38.3,27.6,68,42,26,30.05,29.91,4,0,10,0.00
2013-4-15,60.7,55.9,51.5,55.7,52.0,43.3,95,87,54,30.23,30.03,0,0,4,0.13
2013-4-16,73.8,61.0,53.7,62.5,56.5,52.3,95,86,63,30.26,30.10,2,0,9,0.14
2013-4-17,84.9,69.3,58.4,63.4,59.6,56.3,94,74,40,30.16,30.04,2,0,7,0.01
2013-4-18,78.0,65.7,59.6,64.9,59.1,56.6,94,81,50,30.14,29.92,3,0,13,0.05
2013-4-19,74.6,66.7,57.4,66.5,60.8,40.7,92,82,56,29.92,29.56,4,1,18,0.66
2013-4-20,63.5,53.3,42.5,40.9,30.2,24.3,72,42,24,30.27,29.70,7,2,22,0.67
2013-4-21,56.6,45.0,33.7,35.9,32.5,29.0,92,64,39,30.53,30.27,2,0,11,0.00
2013-4-22,61.5,46.1,30.4,40.9,34.6,28.4,94,67,40,30.52,30.31,2,0,8,0.00
2013-4-23,68.1,54.4,46.3,50.0,43.2,38.1,88,67,47,30.33,30.06,2,0,9,0.00
2013-4-24,62.9,47.9,40.3,58.4,45.3,38.6,96,91,77,30.08,29.85,4,0,10,0.06
2013-4-25,69.0,56.0,44.7,52.1,36.4,26.8,79,50,23,30.26,29.95,4,1,14,0.06
2013-4-26,69.1,53.9,37.0,44.2,37.2,28.9,89,57,29,30.42,30.26,2,0,10,0.00
2013-4-27,73.2,57.8,43.6,49.6,44.1,40.3,89,63,34,30.35,30.20,2,0,10,0.00
2013-4-28,55.8,53.6,50.0,53.3,49.1,44.6,94,85,70,30.22,30.08,0,0,2,0.09
2013-4-29,65.8,56.2,51.0,59.4,53.7,49.3,96,91,78,30.11,29.95,1,0,5,0.30
2013-4-30,64.5,58.5,54.2,58.4,54.6,52.1,94,87,74,30.23,30.03,1,0,7,0.02
2013-5-1,73.5,60.8,51.7,53.5,48.3,38.6,95,68,32,30.35,30.22,1,0,9,0.04
2013-5-2,71.4,56.7,46.3,51.3,42.0,-99.9,88,64,39,30.36,30.25,2,-29,9,0.00
2013-5-3,69.2,26.4,54.2,53.8,-38.0,-99.9,73,25,45,30.31,30.18,3,-583,8,0.00
2013-5-4,65.7,24.5,47.8,52.5,-38.2,-99.9,87,29,56,30.26,30.09,2,-584,8,0.00
2013-5-5,66.7,52.0,39.9,49.4,43.7,37.4,93,75,51,30.18,30.05,2,0,7,0.00
2013-5-6,58.2,53.6,50.0,57.4,51.5,47.6,97,93,77,30.10,29.92,0,0,5,0.46
2013-5-7,65.8,58.0,53.6,62.9,56.8,52.5,97,96,86,29.93,29.80,3,0,8,0.64
2013-5-8,62.2,56.0,49.6,58.5,54.1,48.3,97,94,83,29.96,29.90,2,0,9,0.04
2013-5-9,81.0,60.9,44.7,62.1,53.0,43.8,98,79,39,29.98,29.89,4,0,12,0.04
2013-5-10,83.8,68.0,52.3,63.2,57.4,50.9,97,73,40,29.99,29.82,0,0,1,0.26
2013-5-11,80.5,68.5,60.9,65.0,60.1,53.2,97,77,49,29.84,29.66,0,0,0,0.26
2013-5-12,67.5,59.7,44.4,57.1,40.1,28.9,82,51,27,30.00,29.71,5,1,16,0.00
2013-5-13,59.6,48.9,36.8,40.7,33.1,25.7,94,58,29,30.16,30.00,6,1,15,0.00
2013-5-14,70.8,49.1,33.2,42.1,35.4,31.2,95,65,30,30.19,30.00,3,1,11,0.00
2013-5-16,70.8,68.0,66.3,64.9,62.8,60.6,90,83,77,29.90,29.83,1,0,8,0.23
2013-5-17,82.8,70.1,59.8,65.6,60.4,52.3,95,74,38,30.07,29.88,2,0,8,0.29
2013-5-18,64.8,62.1,60.5,63.3,60.8,59.6,97,96,94,30.15,30.07,0,0,4,0.12
2013-5-19,65.2,62.1,60.1,64.0,61.1,59.2,97,97,95,30.15,30.03,0,0,2,0.11
2013-5-20,83.2,70.0,63.4,72.1,66.2,62.5,98,89,62,30.06,29.93,1,0,8,0.11
2013-5-21,86.5,73.3,62.7,74.1,67.7,60.9,97,84,59,29.96,29.83,2,0,8,0.00
2013-5-22,87.0,74.3,64.5,73.4,67.7,63.1,97,82,57,29.90,29.77,5,0,14,0.05
2013-5-23,77.5,68.8,62.0,70.5,65.6,60.3,96,90,72,29.85,29.70,5,0,10,0.39
2013-5-24,62.7,59.0,49.5,60.9,47.9,33.2,96,69,41,30.13,29.72,8,2,27,0.40
2013-5-25,69.6,53.9,37.6,41.5,35.2,26.8,89,53,21,30.23,30.08,7,1,21,0.00
2013-5-26,77.2,58.4,42.6,51.6,40.3,30.3,92,57,19,30.22,30.08,4,0,11,0.00
2013-5-27,68.2,56.5,42.1,56.3,47.8,39.9,95,74,49,30.25,30.14,0,0,4,0.00
2013-5-28,57.6,56.2,53.9,54.1,53.3,51.6,92,90,88,30.17,30.14,0,0,0,0.00
2013-6-3,83.3,72.3,65.6,70.1,66.3,62.3,96,83,56,29.91,29.76,1,0,11,0.02
2013-6-4,79.0,66.9,57.7,64.0,55.1,44.8,97,70,35,30.09,29.91,2,0,8,0.01
2013-6-5,78.5,67.7,57.1,64.8,58.9,53.2,92,75,50,30.12,29.99,2,0,8,0.01
2013-6-6,67.1,62.5,59.5,64.0,59.8,55.2,97,91,75,30.01,29.79,0,0,2,0.97
2013-6-7,69.8,65.8,63.6,68.9,64.7,62.7,98,96,92,29.79,29.56,0,0,6,0.33
2013-6-8,65.6,63.7,61.3,64.1,61.5,59.5,96,92,85,29.83,29.72,1,0,8,0.33
2013-6-9,81.8,75.2,68.8,73.8,70.0,67.2,95,84,73,30.06,30.00,2,0,6,1.99
2013-6-10,82.7,71.5,66.8,74.4,68.6,65.0,97,91,71,30.05,29.75,5,0,13,0.06
2013-6-11,83.0,72.7,64.3,66.6,63.8,61.0,96,76,50,29.85,29.77,6,1,14,0.06
2013-6-12,91.9,76.9,63.5,77.3,67.8,61.2,94,76,49,29.85,29.73,5,1,16,0.00
2013-6-13,85.2,74.6,70.1,73.6,68.2,63.2,94,81,59,29.75,29.47,5,1,13,0.12